NCAR-RAP Real-Time Weather Data

Output produced by METARs form (19 June 2019  11:55 UTC)
found at http://weather.rap.ucar.edu/surface/
 
KDLH 191055Z 00000KT 10SM BKN080 13/11 A2990 RMK AO2 SLP130 T01280106
KDLH 190955Z 08004KT 10SM BKN085 13/11 A2989 RMK AO2 SLP127 T01280106
KDLH 190855Z 05003KT 10SM OVC095 13/11 A2990 RMK AO2 SLP129 T01280106 56009
KDLH 190755Z 00000KT 10SM OVC085 12/10 A2990 RMK AO2 SLP129 T01220100
KDLH 190655Z 06003KT 10SM OVC085 13/10 A2992 RMK AO2 SLP135 T01280100
KDLH 190555Z 00000KT 10SM OVC085 12/10 A2993 RMK AO2 SLP139 T01170100 10167 20117 401940106 56003
KDLH 190455Z 00000KT 10SM FEW085 BKN110 12/10 A2993 RMK AO2 SLP141 T01170100
KDLH 190355Z 08004KT 10SM BKN090 13/11 A2993 RMK AO2 SLP137 T01280106
KDLH 190255Z 00000KT 10SM BKN075 BKN110 14/11 A2994 RMK AO2 SLP140 T01390111 53006
KDLH 190155Z 00000KT 10SM SCT080 BKN100 14/11 A2993 RMK AO2 SLP139 T01390111
KDLH 190055Z 10006KT 10SM BKN080 BKN100 16/12 A2993 RMK AO2 SLP136 T01610117
KDLH 182355Z 10004KT 10SM BKN065 16/12 A2992 RMK AO2 RAE19 SLP135 P0000 60004 T01610122 10194 20156 58006
KDLH 182255Z 11005KT 10SM -RA SCT055 OVC075 16/12 A2992 RMK AO2 SLP137 P0000 T01560122
KDLH 182155Z 09003KT 6SM -RA OVC060 16/12 A2994 RMK AO2 RAB07 SLP143 P0004 T01560122
KDLH 182119Z 13006KT 3SM -RA FEW041 OVC060 16/12 A2994 RMK AO2 RAB07 P0001 T01610117
KDLH 182112Z 15007KT 1 3/4SM -RA FEW042 OVC060 16/12 A2994 RMK AO2 RAB07 P0001 T01610117
KDLH 182055Z 14007KT 10SM FEW040 OVC060 17/12 A2994 RMK AO2 SLP142 60000 T01720117 55005
KDLH 181955Z 14003KT 10SM FEW070 BKN095 18/13 A2993 RMK AO2 SLP140 T01830128
KDLH 181855Z 17005KT 10SM BKN075 OVC090 17/13 A2995 RMK AO2 RAE14 SLP146 P0000 T01720128
KDLH 181755Z 16003KT 3SM R09/5500VP6000FT -RA FEW036 BKN050 OVC080 16/12 A2995 RMK AO2 RAE1657B50 SLP148 P0000 60009 T01610122 10178 20133 58003
KDLH 181655Z 12007KT 10SM -RA SCT025 BKN037 BKN045 14/11 A2997 RMK AO2 RAB10 SLP154 P0009 T01390111
KDLH 181644Z 11009KT 7SM -RA SCT023 BKN028 OVC042 14/11 A2997 RMK AO2 RAB10 P0009 T01440111
KDLH 181555Z 16005KT 10SM SCT020 BKN075 17/11 A2996 RMK AO2 SLP151 T01670111